Time;durP1;ratioP1;P1;durP2;ratioP2;P2;SDS_P1;SDS_P2;PMS_P1;PMS_P2;Temp;Humidity;BMP_temperature;BMP_pressure;BME280_temperature;BME280_humidity;BME280_pressure;Samples;Min_cycle;Max_cycle;Signal;HPM_P1;HPM_P2
2021/08/03 00:01:23;;;;;;;5.67;3.20;;;;;;;11.46;77.59;97174.67;1808023;77;27347;-84
2021/08/03 00:04:10;;;;;;;6.60;3.55;;;;;;;11.46;77.63;97173.84;1810732;77;25652;-82
2021/08/03 00:06:41;;;;;;;5.08;3.80;;;;;;;11.44;77.51;97179.47;1821025;77;25655;-87
2021/08/03 00:09:09;;;;;;;4.37;3.50;;;;;;;11.40;77.50;97170.66;1827125;77;25272;-86
2021/08/03 00:11:42;;;;;;;3.52;3.15;;;;;;;11.38;77.50;97171.41;1827139;77;26022;-82
2021/08/03 00:14:10;;;;;;;6.42;3.83;;;;;;;11.37;77.49;97180.56;1826783;77;28212;-88
2021/08/03 00:16:40;;;;;;;5.80;3.42;;;;;;;11.35;77.48;97177.28;1827049;77;25724;-82
2021/08/03 00:19:07;;;;;;;7.10;3.55;;;;;;;11.33;77.54;97179.37;1826534;77;25808;-85
2021/08/03 00:21:35;;;;;;;8.38;3.58;;;;;;;11.33;77.49;97186.13;1827162;77;25636;-88
2021/08/03 00:24:04;;;;;;;5.65;3.60;;;;;;;11.32;77.48;97182.59;1827165;77;25684;-80
2021/08/03 00:26:31;;;;;;;7.90;3.95;;;;;;;11.29;77.46;97184.38;1827295;77;27344;-81
2021/08/03 00:28:58;;;;;;;6.28;3.20;;;;;;;11.27;77.47;97189.69;1797380;78;25681;-86
2021/08/03 00:31:27;;;;;;;8.05;4.30;;;;;;;11.26;77.46;97186.69;1826943;77;25670;-84
2021/08/03 00:33:56;;;;;;;7.30;4.35;;;;;;;11.20;77.40;97187.06;1822697;77;25915;-86
2021/08/03 00:36:31;;;;;;;7.12;4.50;;;;;;;11.14;77.48;97182.00;1811424;77;25639;-83
2021/08/03 00:38:58;;;;;;;5.28;3.85;;;;;;;11.15;77.54;97190.41;1825130;77;27354;-85
2021/08/03 00:41:30;;;;;;;5.80;4.37;;;;;;;11.12;77.56;97177.86;1826296;77;25740;-80
2021/08/03 00:43:57;;;;;;;7.95;4.50;;;;;;;11.10;77.64;97184.86;1826170;77;26403;-82
2021/08/03 00:46:24;;;;;;;10.58;4.60;;;;;;;11.07;77.55;97181.23;1826543;77;25729;-88
2021/08/03 00:48:51;;;;;;;8.83;4.78;;;;;;;11.05;77.67;97183.33;1826610;77;25853;-86
2021/08/03 00:51:22;;;;;;;8.38;4.75;;;;;;;11.06;77.73;97180.94;1813459;77;27329;-84
2021/08/03 00:53:50;;;;;;;11.05;5.00;;;;;;;11.04;77.76;97180.32;1825788;77;25703;-83
2021/08/03 00:56:17;;;;;;;6.90;4.80;;;;;;;11.05;77.75;97178.45;1826527;77;25712;-81
2021/08/03 00:58:43;;;;;;;8.78;5.22;;;;;;;11.03;77.72;97181.36;1826438;77;25862;-85
2021/08/03 01:01:11;;;;;;;12.35;4.37;;;;;;;10.98;77.79;97183.09;1826774;77;25767;-85
2021/08/03 01:03:38;;;;;;;8.60;4.87;;;;;;;10.97;77.89;97178.73;1826489;77;27442;-83
2021/08/03 01:06:24;;;;;;;8.48;4.37;;;;;;;10.93;77.85;97172.92;1826470;77;25700;-81
2021/08/03 01:09:17;;;;;;;9.65;4.80;;;;;;;10.94;77.98;97171.88;1820576;77;25784;-80
2021/08/03 01:11:58;;;;;;;10.50;5.03;;;;;;;10.95;77.93;97178.11;1809431;77;25847;-80
2021/08/03 01:14:45;;;;;;;7.00;3.83;;;;;;;10.91;77.88;97169.61;1810144;77;25505;-84
2021/08/03 01:17:20;;;;;;;8.08;3.58;;;;;;;10.91;77.92;97171.48;1824990;77;27390;-85
2021/08/03 01:20:18;;;;;;;5.40;3.75;;;;;;;10.88;77.87;97168.69;1825800;77;26291;-86
2021/08/03 01:23:17;;;;;;;5.20;3.90;;;;;;;10.90;77.92;97173.36;1826230;77;25640;-84
2021/08/03 01:26:07;;;;;;;5.15;3.72;;;;;;;10.90;77.90;97173.36;1825160;77;25675;-86
2021/08/03 01:28:47;;;;;;;5.10;2.72;;;;;;;10.88;77.91;97170.56;1728849;82;25848;-86
2021/08/03 01:31:19;;;;;;;5.20;2.95;;;;;;;10.85;77.78;97171.85;1728680;81;28143;-86
2021/08/03 01:33:50;;;;;;;4.60;3.02;;;;;;;10.83;77.78;97177.98;1728890;82;26490;-83
2021/08/03 01:36:20;;;;;;;3.80;3.40;;;;;;;10.81;77.82;97176.03;1728722;81;25717;-88
2021/08/03 01:38:48;;;;;;;6.58;2.87;;;;;;;10.77;77.81;97177.50;1728638;81;26031;-82
2021/08/03 01:41:18;;;;;;;3.35;3.05;;;;;;;10.76;77.89;97177.19;1728799;81;25339;-81
2021/08/03 01:43:47;;;;;;;7.53;3.30;;;;;;;10.77;77.93;97178.33;1728610;81;27573;-81
2021/08/03 01:46:17;;;;;;;4.08;3.27;;;;;;;10.74;77.86;97171.20;1728621;82;26011;-88
2021/08/03 01:48:47;;;;;;;5.53;3.05;;;;;;;10.72;77.95;97171.42;1728782;81;25861;-87
2021/08/03 01:51:15;;;;;;;6.55;3.85;;;;;;;10.72;77.89;97168.72;1728774;81;25753;-86
2021/08/03 01:53:45;;;;;;;6.03;3.90;;;;;;;10.66;77.83;97170.09;1728770;81;25811;-86
2021/08/03 01:56:17;;;;;;;6.97;3.83;;;;;;;10.60;77.84;97176.38;1728723;81;28181;-88
2021/08/03 01:58:45;;;;;;;6.97;4.67;;;;;;;10.61;78.10;97178.04;1728814;81;25845;-83
2021/08/03 02:01:13;;;;;;;10.08;5.22;;;;;;;10.61;78.16;97178.04;1728619;82;25315;-86
2021/08/03 02:03:40;;;;;;;8.25;4.70;;;;;;;10.57;78.13;97177.63;1803550;77;25722;-82
2021/08/03 02:06:08;;;;;;;12.68;5.67;;;;;;;10.54;78.21;97179.93;1826543;77;25783;-82
2021/08/03 02:08:35;;;;;;;14.38;6.00;;;;;;;10.55;78.21;97180.23;1826506;77;28073;-84
2021/08/03 02:11:04;;;;;;;11.93;5.08;;;;;;;10.55;78.24;97186.98;1824834;77;25744;-88
2021/08/03 02:13:32;;;;;;;9.20;4.75;;;;;;;10.56;78.23;97184.59;1823614;77;26322;-85
2021/08/03 02:15:59;;;;;;;4.62;3.80;;;;;;;10.54;78.21;97188.86;1826311;77;25799;-81
2021/08/03 02:18:26;;;;;;;5.17;3.95;;;;;;;10.55;78.29;97185.63;1826580;77;25733;-86
2021/08/03 02:20:53;;;;;;;4.70;3.67;;;;;;;10.58;78.29;97187.39;1826542;77;28351;-85
2021/08/03 02:23:20;;;;;;;4.95;3.42;;;;;;;10.60;78.11;97191.23;1826187;77;25839;-83
2021/08/03 02:25:47;;;;;;;9.20;4.67;;;;;;;10.58;78.14;97191.95;1826544;77;25683;-80
2021/08/03 02:28:13;;;;;;;10.50;5.10;;;;;;;10.54;78.12;97189.37;1826585;77;25659;-83
2021/08/03 02:30:44;;;;;;;9.45;4.83;;;;;;;10.54;78.15;97188.02;1806291;78;26528;-81
2021/08/03 02:33:23;;;;;;;7.20;3.83;;;;;;;10.50;78.09;97189.00;1824822;77;27380;-87
2021/08/03 02:36:11;;;;;;;3.87;3.25;;;;;;;10.48;78.07;97195.66;1826384;77;25648;-83
2021/08/03 02:38:42;;;;;;;8.23;3.27;;;;;;;10.45;78.14;97196.38;1824521;77;25793;-83
2021/08/03 02:41:09;;;;;;;5.78;3.22;;;;;;;10.43;78.15;97191.72;1826555;77;25721;-87
2021/08/03 02:43:38;;;;;;;3.02;2.80;;;;;;;10.44;78.16;97196.08;1826453;77;25761;-85
2021/08/03 02:46:06;;;;;;;3.50;3.20;;;;;;;10.46;78.21;97195.86;1826502;77;27392;-81
2021/08/03 02:48:35;;;;;;;5.22;3.27;;;;;;;10.45;78.19;97193.69;1826411;77;26238;-83
2021/08/03 02:51:03;;;;;;;4.80;3.30;;;;;;;10.45;78.23;97194.20;1826371;77;25768;-84
2021/08/03 02:53:41;;;;;;;5.75;3.70;;;;;;;10.43;78.14;97190.37;1826388;77;25799;-89
2021/08/03 02:56:11;;;;;;;6.15;3.52;;;;;;;10.41;78.15;97188.41;1823746;77;25691;-84
2021/08/03 02:58:48;;;;;;;5.17;3.22;;;;;;;10.41;78.21;97191.10;1826523;77;27233;-88
2021/08/03 03:01:16;;;;;;;3.75;3.42;;;;;;;10.41;78.15;97193.80;1824478;77;25720;-86
2021/08/03 03:03:50;;;;;;;7.33;3.87;;;;;;;10.39;78.14;97195.05;1825331;77;25683;-80
2021/08/03 03:06:20;;;;;;;6.00;3.55;;;;;;;10.33;78.18;97191.36;1826374;77;25785;-80
2021/08/03 03:08:47;;;;;;;8.68;3.15;;;;;;;10.24;78.11;97188.61;1785172;78;26002;-80
2021/08/03 03:11:17;;;;;;;4.55;3.87;;;;;;;10.20;78.34;97191.94;1826580;77;28187;-82
2021/08/03 03:13:53;;;;;;;6.40;3.60;;;;;;;10.14;78.36;97203.05;1826354;77;25727;-80
2021/08/03 03:16:23;;;;;;;6.95;3.70;;;;;;;10.10;78.56;97203.98;1826441;78;25798;-82
2021/08/03 03:18:50;;;;;;;4.17;3.55;;;;;;;10.07;78.63;97202.22;1826417;77;25730;-80
2021/08/03 03:21:20;;;;;;;4.45;3.52;;;;;;;10.11;78.82;97198.06;1826593;77;25225;-81
2021/08/03 03:23:51;;;;;;;4.30;3.42;;;;;;;10.16;78.86;97200.94;1826183;77;27446;-86
2021/08/03 03:26:19;;;;;;;5.87;3.17;;;;;;;10.19;78.80;97204.59;1826408;77;25684;-81
2021/08/03 03:28:49;;;;;;;3.98;3.45;;;;;;;10.21;78.74;97209.26;1826422;77;26399;-87
2021/08/03 03:31:15;;;;;;;3.87;2.77;;;;;;;10.19;78.72;97211.34;1825736;77;25782;-81
2021/08/03 03:33:43;;;;;;;5.03;3.00;;;;;;;10.18;78.72;97216.42;1824115;78;25804;-87
2021/08/03 03:36:11;;;;;;;7.28;3.35;;;;;;;10.20;78.79;97212.16;1824139;77;27358;-81
2021/08/03 03:38:41;;;;;;;5.33;3.40;;;;;;;10.22;78.73;97219.01;1824038;77;25826;-88
2021/08/03 03:41:09;;;;;;;5.70;3.30;;;;;;;10.25;78.76;97215.89;1824133;78;25799;-81
2021/08/03 03:43:36;;;;;;;3.35;2.80;;;;;;;10.24;78.72;97215.58;1824112;77;26371;-88
2021/08/03 03:46:11;;;;;;;4.42;2.55;;;;;;;10.26;78.74;97228.86;1821593;78;25827;-83
2021/08/03 03:48:45;;;;;;;6.47;2.92;;;;;;;10.24;78.70;97228.23;1823973;77;27368;-84
2021/08/03 03:51:18;;;;;;;2.98;2.58;;;;;;;10.20;78.65;97229.18;1823686;78;25774;-89
2021/08/03 03:53:53;;;;;;;4.60;3.10;;;;;;;10.19;78.69;97227.52;1824123;78;25823;-83
2021/08/03 03:56:23;;;;;;;4.78;3.02;;;;;;;10.13;78.63;97228.36;1824110;78;25656;-83
2021/08/03 03:58:55;;;;;;;9.68;3.02;;;;;;;10.12;78.78;97230.74;1824203;78;26546;-81
2021/08/03 04:01:25;;;;;;;3.45;3.15;;;;;;;10.17;78.91;97237.66;1824018;78;27352;-80
2021/08/03 04:03:54;;;;;;;5.95;2.98;;;;;;;10.20;78.98;97237.27;1824012;78;25771;-86
2021/08/03 04:06:21;;;;;;;7.42;3.47;;;;;;;10.21;79.07;97232.19;1824192;77;25764;-81
2021/08/03 04:08:47;;;;;;;6.22;3.75;;;;;;;10.26;79.19;97241.83;1824300;77;25670;-85
2021/08/03 04:11:14;;;;;;;5.78;3.83;;;;;;;10.27;79.15;97239.41;1824092;78;26344;-86
2021/08/03 04:13:44;;;;;;;3.67;3.30;;;;;;;10.28;79.18;97237.02;1824086;78;27332;-84
2021/08/03 04:16:12;;;;;;;6.17;3.10;;;;;;;10.33;79.23;97245.31;1824095;78;25637;-82
2021/08/03 04:18:38;;;;;;;7.58;3.90;;;;;;;10.38;79.24;97246.87;1824300;78;25824;-81
2021/08/03 04:21:05;;;;;;;8.50;4.50;;;;;;;10.39;79.24;97237.70;1824428;78;25780;-86
2021/08/03 04:23:32;;;;;;;7.28;5.22;;;;;;;10.42;79.30;97239.98;1824069;77;25661;-80
2021/08/03 04:25:58;;;;;;;6.05;5.45;;;;;;;10.45;79.32;97235.52;1824392;77;28119;-84
2021/08/03 04:28:25;;;;;;;12.28;7.67;;;;;;;10.49;79.42;97232.39;1824262;77;26400;-84
2021/08/03 04:30:51;;;;;;;16.65;8.25;;;;;;;10.56;79.56;97238.58;1824361;77;25767;-85
2021/08/03 04:33:18;;;;;;;13.38;8.40;;;;;;;10.61;79.58;97236.07;1829279;77;25792;-81
2021/08/03 04:35:45;;;;;;;10.60;7.30;;;;;;;10.68;79.59;97240.38;1829739;77;25733;-80
2021/08/03 04:38:12;;;;;;;15.18;7.22;;;;;;;10.72;79.66;97235.38;1829729;77;27391;-80
2021/08/03 04:40:38;;;;;;;11.53;6.35;;;;;;;10.78;79.67;97235.85;1829756;77;25774;-82
2021/08/03 04:43:05;;;;;;;11.95;6.95;;;;;;;10.81;79.74;97228.67;1829856;77;25719;-85
2021/08/03 04:45:32;;;;;;;13.28;7.20;;;;;;;10.86;79.74;97232.92;1829891;77;25801;-88
2021/08/03 04:47:58;;;;;;;9.70;7.05;;;;;;;10.92;79.75;97232.55;1829929;77;25758;-87
2021/08/03 04:50:28;;;;;;;9.40;6.60;;;;;;;10.97;79.78;97233.57;1829925;77;27328;-87
2021/08/03 04:52:56;;;;;;;11.05;6.90;;;;;;;11.02;79.80;97231.55;1829639;77;25726;-87
2021/08/03 04:55:24;;;;;;;10.48;6.87;;;;;;;11.10;79.88;97232.66;1829741;77;25763;-80
2021/08/03 04:57:51;;;;;;;10.80;7.42;;;;;;;11.12;79.92;97233.23;1829647;77;25674;-80
2021/08/03 05:00:18;;;;;;;13.30;7.22;;;;;;;11.17;79.93;97226.14;1829431;77;25797;-83
2021/08/03 05:02:45;;;;;;;10.85;6.58;;;;;;;11.23;79.89;97226.33;1829693;77;27351;-85
2021/08/03 05:05:12;;;;;;;10.50;6.92;;;;;;;11.29;80.00;97229.48;1829591;77;26460;-80
2021/08/03 05:07:39;;;;;;;10.15;6.20;;;;;;;11.33;80.06;97230.19;1829804;77;26396;-81
2021/08/03 05:10:10;;;;;;;10.50;5.67;;;;;;;11.40;80.11;97228.77;1829801;77;26022;-80
2021/08/03 05:12:39;;;;;;;7.85;5.53;;;;;;;11.44;80.24;97232.17;1829345;77;25735;-88
2021/08/03 05:15:08;;;;;;;9.75;5.85;;;;;;;11.53;80.30;97238.12;1829658;77;28742;-85
2021/08/03 05:17:35;;;;;;;9.03;5.87;;;;;;;11.60;80.28;97238.05;1829607;77;25755;-88
2021/08/03 05:20:02;;;;;;;7.80;5.75;;;;;;;11.67;80.35;97237.48;1829698;77;26127;-84
2021/08/03 05:22:30;;;;;;;10.03;5.70;;;;;;;11.73;80.38;97232.52;1829372;77;26187;-81
2021/08/03 05:24:58;;;;;;;7.28;6.05;;;;;;;11.79;80.40;97231.16;1829686;77;25644;-87
2021/08/03 05:27:26;;;;;;;8.48;5.65;;;;;;;11.87;80.48;97231.38;1829724;77;28177;-89
2021/08/03 05:29:52;;;;;;;15.25;7.10;;;;;;;11.95;80.61;97231.63;1829726;77;25771;-87
2021/08/03 05:32:19;;;;;;;14.13;6.10;;;;;;;12.04;80.65;97227.56;1827239;77;25928;-86
2021/08/03 05:34:45;;;;;;;8.95;6.15;;;;;;;12.12;80.62;97226.73;1824316;77;25730;-86
2021/08/03 05:37:12;;;;;;;12.10;6.33;;;;;;;12.19;80.64;97222.62;1824220;78;25818;-84
2021/08/03 05:39:39;;;;;;;9.45;6.35;;;;;;;12.27;80.67;97225.02;1824257;78;27493;-86
2021/08/03 05:42:06;;;;;;;8.20;6.87;;;;;;;12.34;80.66;97214.92;1824287;78;25706;-85
2021/08/03 05:44:33;;;;;;;8.58;6.78;;;;;;;12.42;80.64;97221.40;1824289;78;25707;-86
2021/08/03 05:47:00;;;;;;;7.60;6.80;;;;;;;12.51;80.68;97225.44;1824229;78;25737;-85
2021/08/03 05:49:27;;;;;;;15.30;7.50;;;;;;;12.60;80.73;97226.77;1824173;77;25734;-85
2021/08/03 05:51:55;;;;;;;8.55;7.33;;;;;;;12.70;80.70;97222.16;1824258;77;28580;-85
2021/08/03 05:54:23;;;;;;;12.63;9.10;;;;;;;12.80;80.70;97221.63;1824302;78;25687;-85
2021/08/03 05:56:50;;;;;;;12.93;7.90;;;;;;;12.87;80.68;97223.70;1824385;78;25706;-85
2021/08/03 05:59:16;;;;;;;10.10;7.50;;;;;;;12.97;80.72;97222.62;1804208;78;25712;-84
2021/08/03 06:01:43;;;;;;;13.78;8.50;;;;;;;13.08;80.73;97216.93;1821883;78;25791;-84
2021/08/03 06:04:09;;;;;;;13.10;7.92;;;;;;;13.17;80.72;97216.92;1824234;77;26642;-84
2021/08/03 06:06:40;;;;;;;11.53;6.67;;;;;;;13.25;80.71;97209.30;1823889;77;25794;-84
2021/08/03 06:09:12;;;;;;;10.28;7.45;;;;;;;13.36;80.70;97216.33;1824293;78;25774;-83
2021/08/03 06:11:50;;;;;;;10.50;7.50;;;;;;;13.45;80.70;97217.63;1824484;77;25675;-83
2021/08/03 06:14:21;;;;;;;8.50;7.42;;;;;;;13.55;80.71;97221.94;1824369;78;25753;-83
2021/08/03 06:16:53;;;;;;;9.58;6.50;;;;;;;13.65;80.72;97220.81;1821933;78;27357;-82
2021/08/03 06:19:23;;;;;;;9.18;6.42;;;;;;;13.75;80.71;97221.08;1824528;78;25632;-83
2021/08/03 06:21:50;;;;;;;9.23;5.20;;;;;;;13.84;80.74;97214.23;1824263;77;25687;-83
2021/08/03 06:24:18;;;;;;;7.78;5.33;;;;;;;13.94;80.57;97216.34;1824229;77;26420;-82
2021/08/03 06:26:45;;;;;;;13.93;5.50;;;;;;;14.05;80.74;97219.05;1823973;78;25719;-82
2021/08/03 06:29:14;;;;;;;7.22;5.33;;;;;;;14.16;80.92;97221.98;1801265;78;28349;-82
2021/08/03 06:31:41;;;;;;;6.75;4.90;;;;;;;14.26;80.80;97216.77;1824145;78;25881;-82
2021/08/03 06:34:09;;;;;;;6.05;5.45;;;;;;;14.37;80.69;97224.05;1829780;77;26244;-82
2021/08/03 06:36:36;;;;;;;6.80;5.22;;;;;;;14.45;80.58;97216.94;1829640;77;25742;-81
2021/08/03 06:39:02;;;;;;;6.83;5.10;;;;;;;14.53;80.54;97211.66;1829796;77;25802;-82
2021/08/03 06:41:32;;;;;;;10.72;5.80;;;;;;;14.63;80.76;97210.50;1829845;77;27493;-81
2021/08/03 06:44:10;;;;;;;9.23;6.53;;;;;;;14.72;80.75;97212.61;1804584;77;25925;-81
2021/08/03 06:46:42;;;;;;;7.72;5.72;;;;;;;14.83;80.78;97212.80;1822568;77;26376;-81
2021/08/03 06:49:12;;;;;;;7.25;5.67;;;;;;;14.91;80.29;97212.40;1829288;77;25732;-81
2021/08/03 06:51:42;;;;;;;6.75;5.28;;;;;;;15.00;80.15;97213.12;1829653;77;25789;-81
2021/08/03 06:54:11;;;;;;;6.00;5.15;;;;;;;15.08;79.85;97216.81;1829799;77;27426;-82
2021/08/03 06:56:51;;;;;;;7.12;5.53;;;;;;;15.17;79.72;97211.80;1829641;77;25647;-83
2021/08/03 06:59:25;;;;;;;6.05;4.42;;;;;;;15.27;79.59;97211.14;1829798;77;25746;-81
2021/08/03 07:02:00;;;;;;;7.47;5.60;;;;;;;15.38;79.39;97210.24;1829259;77;25675;-82
2021/08/03 07:04:35;;;;;;;7.70;5.10;;;;;;;15.46;79.30;97212.02;1823936;77;25824;-83
2021/08/03 07:07:03;;;;;;;10.05;5.45;;;;;;;15.56;79.30;97207.86;1829803;77;28381;-82
2021/08/03 07:09:31;;;;;;;9.63;6.15;;;;;;;15.66;79.10;97205.30;1829588;77;25260;-82
2021/08/03 07:11:57;;;;;;;9.53;5.58;;;;;;;15.74;78.97;97204.87;1829638;77;25718;-82
2021/08/03 07:14:25;;;;;;;8.35;4.85;;;;;;;15.82;78.84;97197.63;1829740;77;26322;-81
2021/08/03 07:16:55;;;;;;;8.78;5.67;;;;;;;15.92;78.76;97204.61;1829712;77;25660;-82
2021/08/03 07:19:23;;;;;;;7.62;4.83;;;;;;;16.02;78.54;97203.39;1829539;78;27892;-83
2021/08/03 07:21:51;;;;;;;8.80;5.70;;;;;;;16.10;78.50;97208.94;1829612;77;25661;-83
2021/08/03 07:24:19;;;;;;;8.10;5.37;;;;;;;16.19;78.30;97205.52;1828952;77;25858;-84
2021/08/03 07:26:46;;;;;;;8.28;5.12;;;;;;;16.31;77.99;97207.30;1829767;77;25810;-83
2021/08/03 07:29:12;;;;;;;9.53;5.20;;;;;;;16.41;77.92;97200.65;1829886;77;25732;-83
2021/08/03 07:31:41;;;;;;;7.12;4.75;;;;;;;16.50;77.87;97201.84;1829630;77;28327;-85
2021/08/03 07:34:09;;;;;;;9.95;4.53;;;;;;;16.64;77.81;97211.31;1826413;77;25730;-84
2021/08/03 07:36:36;;;;;;;6.00;4.25;;;;;;;16.78;77.97;97205.77;1826568;78;25663;-83
2021/08/03 07:39:06;;;;;;;7.08;4.80;;;;;;;16.93;78.39;97208.63;1773455;78;25386;-84
2021/08/03 07:41:35;;;;;;;5.72;4.62;;;;;;;17.10;78.13;97207.72;1826618;77;25688;-84
2021/08/03 07:44:02;;;;;;;6.37;4.67;;;;;;;17.30;78.11;97202.45;1826488;77;27510;-84
2021/08/03 07:46:30;;;;;;;6.83;4.70;;;;;;;17.59;77.82;97201.08;1826431;77;25743;-83
2021/08/03 07:48:58;;;;;;;4.10;3.62;;;;;;;17.96;77.37;97200.28;1826642;77;25784;-83
2021/08/03 07:51:26;;;;;;;5.42;3.83;;;;;;;18.37;76.84;97204.05;1826634;77;26388;-85
2021/08/03 07:53:53;;;;;;;4.92;3.80;;;;;;;18.80;76.64;97200.17;1826710;77;25697;-83
2021/08/03 07:56:20;;;;;;;5.87;3.30;;;;;;;19.25;75.98;97206.29;1803454;77;27377;-84
2021/08/03 07:58:48;;;;;;;6.80;3.80;;;;;;;19.63;75.07;97198.14;1826671;77;25687;-83
2021/08/03 08:01:17;;;;;;;3.62;3.27;;;;;;;20.07;75.29;97203.02;1826743;77;25705;-84
2021/08/03 08:03:44;;;;;;;9.53;3.50;;;;;;;20.49;74.77;97204.05;1826649;77;25691;-83
2021/08/03 08:06:10;;;;;;;3.67;3.37;;;;;;;20.85;74.36;97200.60;1826830;77;25720;-84
2021/08/03 08:08:37;;;;;;;5.53;3.70;;;;;;;21.58;72.92;97196.59;1826727;77;27507;-83
2021/08/03 08:11:04;;;;;;;4.22;2.80;;;;;;;21.58;72.92;97196.59;1826706;77;25735;-83
2021/08/03 08:13:31;;;;;;;3.92;2.98;;;;;;;22.22;70.92;97202.34;1842755;77;25229;-83
2021/08/03 08:15:57;;;;;;;4.08;3.12;;;;;;;22.22;70.92;97202.34;1810970;77;25482;-83
2021/08/03 08:18:24;;;;;;;5.83;2.98;;;;;;;22.49;70.68;97199.02;1801405;77;25788;-84
2021/08/03 08:20:50;;;;;;;3.05;2.42;;;;;;;22.75;69.98;97205.86;1809383;77;28234;-83
2021/08/03 08:23:17;;;;;;;2.50;2.30;;;;;;;22.97;68.71;97199.83;1826583;77;25248;-82
2021/08/03 08:25:44;;;;;;;2.37;2.20;;;;;;;23.05;67.60;97199.19;1826726;77;25729;-83
2021/08/03 08:28:10;;;;;;;4.03;2.15;;;;;;;23.31;67.07;97197.69;1826714;77;26367;-83
2021/08/03 08:30:38;;;;;;;2.40;2.20;;;;;;;23.63;67.12;97188.70;1826795;77;25712;-84
2021/08/03 08:33:05;;;;;;;2.47;2.10;;;;;;;23.92;65.59;97189.84;1827558;77;28176;-84
2021/08/03 08:35:33;;;;;;;3.62;1.75;;;;;;;24.26;64.70;97184.61;1820849;77;26065;-83
2021/08/03 08:37:59;;;;;;;2.25;1.90;;;;;;;24.43;64.43;97184.81;1829826;77;25237;-84
2021/08/03 08:40:26;;;;;;;2.25;1.90;;;;;;;24.60;63.74;97184.21;1829991;77;26200;-85
2021/08/03 08:42:53;;;;;;;1.98;1.77;;;;;;;24.85;64.08;97182.31;1829596;77;25775;-84
2021/08/03 08:45:19;;;;;;;2.15;1.95;;;;;;;25.19;63.72;97185.19;1829918;77;27511;-85
2021/08/03 08:47:48;;;;;;;2.50;2.20;;;;;;;25.58;62.40;97184.55;1829825;77;26024;-83
2021/08/03 08:50:22;;;;;;;2.37;2.17;;;;;;;25.79;61.45;97185.72;1829924;77;25750;-85
2021/08/03 08:52:53;;;;;;;3.80;1.90;;;;;;;26.09;60.81;97179.38;1806928;77;26485;-85
2021/08/03 08:55:19;;;;;;;3.55;2.62;;;;;;;26.43;60.06;97173.83;1829863;77;25718;-82
2021/08/03 08:57:51;;;;;;;4.40;2.67;;;;;;;26.62;59.56;97172.18;1829992;77;27619;-84
2021/08/03 09:00:19;;;;;;;3.10;2.17;;;;;;;26.77;59.18;97173.95;1808006;77;26874;-84
2021/08/03 09:02:53;;;;;;;2.10;1.92;;;;;;;27.12;58.06;97162.41;1829862;77;25679;-85
2021/08/03 09:05:37;;;;;;;3.85;2.00;;;;;;;27.42;57.99;97171.70;1829567;77;25666;-87
2021/08/03 09:08:06;;;;;;;2.70;1.80;;;;;;;27.43;56.27;97169.75;1829814;77;25742;-84
2021/08/03 09:10:40;;;;;;;1.85;1.75;;;;;;;27.58;55.75;97164.56;1818377;77;27342;-84
2021/08/03 09:13:21;;;;;;;3.30;1.98;;;;;;;27.69;55.39;97167.00;1820321;77;25725;-84
2021/08/03 09:15:59;;;;;;;2.15;1.95;;;;;;;27.73;54.74;97166.03;1830159;77;25660;-85
2021/08/03 09:18:35;;;;;;;2.45;1.60;;;;;;;27.79;54.37;97159.16;1829905;77;25707;-85
2021/08/03 09:21:03;;;;;;;2.08;1.87;;;;;;;27.55;54.00;97151.34;1829949;77;25735;-84
2021/08/03 09:23:51;;;;;;;1.85;1.65;;;;;;;27.49;54.29;97158.75;1829888;77;28399;-86
2021/08/03 09:26:21;;;;;;;1.70;1.60;;;;;;;27.71;54.50;97154.45;1839005;77;25817;-83
2021/08/03 09:29:03;;;;;;;1.92;1.82;;;;;;;27.89;53.65;97151.91;1804697;77;25794;-87
2021/08/03 09:31:33;;;;;;;1.47;1.37;;;;;;;27.96;53.29;97158.32;1824815;77;25702;-87
2021/08/03 09:34:12;;;;;;;2.27;1.80;;;;;;;27.71;52.41;97159.17;1804913;77;25724;-84
2021/08/03 09:36:53;;;;;;;1.95;1.50;;;;;;;27.18;52.25;97154.16;1826562;77;27390;-84
2021/08/03 09:39:42;;;;;;;5.08;1.98;;;;;;;26.77;52.34;97155.95;1826804;77;25668;-85
2021/08/03 09:42:22;;;;;;;9.55;2.80;;;;;;;26.45;52.20;97150.78;1826534;77;25700;-84
2021/08/03 09:44:53;;;;;;;7.50;3.33;;;;;;;26.15;51.82;97153.23;1797461;78;25816;-85
2021/08/03 09:47:23;;;;;;;2.95;2.20;;;;;;;25.87;51.80;97154.53;1826710;77;25734;-85
2021/08/03 09:49:53;;;;;;;2.22;1.87;;;;;;;25.62;51.38;97151.02;1826568;77;28004;-85
2021/08/03 09:52:24;;;;;;;2.10;1.80;;;;;;;25.42;52.13;97153.70;1826542;77;25849;-89
2021/08/03 09:55:08;;;;;;;1.93;1.77;;;;;;;25.26;52.41;97156.00;1803656;77;25779;-85
2021/08/03 09:57:35;;;;;;;2.58;1.95;;;;;;;25.35;52.27;97145.04;1826791;77;25635;-85
2021/08/03 10:00:03;;;;;;;2.45;1.50;;;;;;;25.21;52.88;97148.41;1826798;77;25707;-85
2021/08/03 10:02:29;;;;;;;1.87;1.77;;;;;;;25.10;52.68;97140.36;1826659;77;28218;-85
2021/08/03 10:04:56;;;;;;;2.00;1.67;;;;;;;25.27;53.44;97141.06;1826553;77;25968;-86
2021/08/03 10:07:23;;;;;;;1.80;1.70;;;;;;;25.33;53.06;97142.59;1826631;77;25751;-85
2021/08/03 10:09:51;;;;;;;1.80;1.70;;;;;;;25.30;52.56;97137.68;1826622;77;26294;-86
2021/08/03 10:12:18;;;;;;;3.08;1.60;;;;;;;25.06;52.24;97131.62;1826722;77;25743;-85
2021/08/03 10:14:45;;;;;;;2.75;1.70;;;;;;;24.76;52.47;97135.83;1842218;77;27578;-92
2021/08/03 10:17:14;;;;;;;2.10;1.85;;;;;;;24.61;52.49;97138.94;1812070;77;25663;-85
2021/08/03 10:19:42;;;;;;;3.77;1.95;;;;;;;24.55;52.27;97144.29;1819332;77;25675;-87
2021/08/03 10:22:36;;;;;;;2.22;2.00;;;;;;;24.39;52.71;97147.34;1790000;80;25678;-85
2021/08/03 10:25:14;;;;;;;5.10;1.82;;;;;;;24.27;52.93;97147.63;1757270;80;25673;-85
2021/08/03 10:27:51;;;;;;;2.00;1.90;;;;;;;24.09;53.36;97147.11;1768394;80;27423;-85
2021/08/03 10:30:34;;;;;;;2.62;1.80;;;;;;;23.89;53.84;97144.17;1771704;80;25870;-92
2021/08/03 10:33:12;;;;;;;3.45;2.25;;;;;;;23.80;54.02;97143.20;1769753;79;25781;-89
2021/08/03 10:35:54;;;;;;;2.37;1.98;;;;;;;23.80;54.24;97139.89;1771103;80;25757;-85
2021/08/03 10:38:21;;;;;;;2.58;2.17;;;;;;;23.80;54.01;97137.14;1770291;80;25810;-85
2021/08/03 10:41:01;;;;;;;3.52;1.92;;;;;;;23.63;54.23;97130.02;1764117;80;28076;-88
2021/08/03 10:43:38;;;;;;;2.37;1.92;;;;;;;23.42;54.66;97142.47;1767646;80;25996;-86
2021/08/03 10:46:16;;;;;;;3.75;2.25;;;;;;;23.35;54.33;97151.92;1778718;80;25697;-86
2021/08/03 10:48:45;;;;;;;6.85;2.20;;;;;;;23.31;54.49;97158.31;1771385;80;25695;-86
2021/08/03 10:51:23;;;;;;;4.42;2.67;;;;;;;23.10;54.47;97150.92;1771358;80;25730;-84
2021/08/03 10:54:08;;;;;;;5.75;2.55;;;;;;;22.97;55.75;97137.90;1771091;80;27371;-84
2021/08/03 10:56:57;;;;;;;3.30;2.20;;;;;;;23.10;56.48;97132.21;1771313;80;25536;-84
2021/08/03 10:59:37;;;;;;;7.62;2.10;;;;;;;23.31;56.85;97120.58;1771403;80;25227;-86
2021/08/03 11:02:06;;;;;;;2.02;1.85;;;;;;;23.64;57.63;97111.81;1771411;80;25834;-84
2021/08/03 11:04:50;;;;;;;2.20;2.00;;;;;;;23.92;56.68;97100.81;1771613;80;25908;-85
2021/08/03 11:07:30;;;;;;;3.45;2.12;;;;;;;24.19;56.77;97105.55;1771435;80;27444;-84
2021/08/03 11:10:19;;;;;;;1.95;1.82;;;;;;;24.48;56.15;97098.38;1771144;80;25778;-84
2021/08/03 11:12:48;;;;;;;2.85;1.90;;;;;;;24.76;55.62;97091.67;1771204;80;25750;-83
2021/08/03 11:15:26;;;;;;;2.70;1.90;;;;;;;24.97;55.46;97092.89;1771411;80;26041;-82
2021/08/03 11:17:58;;;;;;;2.15;1.72;;;;;;;25.05;54.73;97092.70;1771168;79;25697;-83
2021/08/03 11:20:45;;;;;;;2.17;1.65;;;;;;;25.06;54.02;97087.44;1790283;79;27365;-84
2021/08/03 11:23:18;;;;;;;3.22;2.02;;;;;;;25.22;54.63;97081.81;1757249;81;25248;-83
2021/08/03 11:25:47;;;;;;;3.40;2.85;;;;;;;25.46;54.05;97077.34;1755360;80;25686;-83
2021/08/03 11:28:20;;;;;;;1.72;1.60;;;;;;;25.65;53.38;97075.21;1758960;80;26040;-87
2021/08/03 11:30:50;;;;;;;2.58;2.00;;;;;;;25.85;53.41;97077.99;1758914;80;25695;-83
2021/08/03 11:33:20;;;;;;;2.77;2.25;;;;;;;25.96;52.26;97070.27;1758927;80;27365;-83
2021/08/03 11:35:48;;;;;;;4.30;2.00;;;;;;;26.07;52.24;97071.05;1758503;80;26090;-85
2021/08/03 11:38:17;;;;;;;2.72;2.08;;;;;;;26.24;51.14;97068.08;1758882;80;26076;-83
2021/08/03 11:40:44;;;;;;;2.05;1.85;;;;;;;26.37;50.55;97064.41;1758850;80;25751;-84
2021/08/03 11:43:11;;;;;;;3.22;1.70;;;;;;;26.42;50.64;97064.27;1758770;80;25750;-85
2021/08/03 11:45:40;;;;;;;1.87;1.77;;;;;;;26.50;51.22;97063.47;1758852;80;28276;-84
2021/08/03 11:48:24;;;;;;;3.40;1.65;;;;;;;26.45;50.99;97057.50;1758952;80;25893;-86